Time;durP1;ratioP1;P1;durP2;ratioP2;P2;SDS_P1;SDS_P2;PMS_P1;PMS_P2;Temp;Humidity;BMP_temperature;BMP_pressure;BME280_temperature;BME280_humidity;BME280_pressure;Samples;Min_cycle;Max_cycle;Signal;HPM_P1;HPM_P2
2022/12/04 00:00:26;;;;;;;7.03;2.40;;;12.60;99.90;;;;;;5033844;28;20200;-74
2022/12/04 00:02:52;;;;;;;5.90;2.40;;;12.60;99.90;;;;;;5023161;28;20193;-75
2022/12/04 00:05:18;;;;;;;7.20;2.53;;;12.60;99.90;;;;;;5012283;28;20204;-75
2022/12/04 00:07:44;;;;;;;5.40;2.70;;;12.50;99.90;;;;;;5018505;28;20561;-75
2022/12/04 00:10:11;;;;;;;6.63;2.10;;;12.50;99.90;;;;;;5029891;28;20729;-75
2022/12/04 00:12:37;;;;;;;5.33;2.10;;;12.50;99.90;;;;;;5027492;28;20778;-75
2022/12/04 00:15:03;;;;;;;10.77;2.70;;;12.40;99.90;;;;;;5032553;28;20798;-75
2022/12/04 00:17:30;;;;;;;6.47;2.43;;;12.50;99.90;;;;;;5026092;28;20250;-75
2022/12/04 00:19:58;;;;;;;5.90;2.43;;;12.50;99.90;;;;;;5028311;28;20286;-75
2022/12/04 00:22:24;;;;;;;8.43;2.57;;;12.50;99.90;;;;;;5016294;28;20201;-75
2022/12/04 00:24:50;;;;;;;6.43;2.70;;;12.50;99.90;;;;;;5024773;28;20196;-75
2022/12/04 00:27:17;;;;;;;9.50;2.43;;;12.50;99.90;;;;;;5021671;28;20615;-75
2022/12/04 00:29:44;;;;;;;8.43;2.60;;;12.50;99.90;;;;;;5003503;28;20238;-75
2022/12/04 00:32:10;;;;;;;5.47;2.57;;;12.50;99.90;;;;;;5033132;28;20678;-75
2022/12/04 00:34:37;;;;;;;5.50;2.50;;;12.50;99.90;;;;;;5021344;28;20203;-75
2022/12/04 00:37:03;;;;;;;6.03;2.50;;;12.50;99.90;;;;;;5032372;28;20317;-75
2022/12/04 00:39:29;;;;;;;9.10;2.70;;;12.40;99.90;;;;;;5025714;28;20193;-74
2022/12/04 00:41:57;;;;;;;9.10;2.90;;;12.40;99.90;;;;;;5018072;28;20184;-75
2022/12/04 00:44:23;;;;;;;7.33;2.60;;;12.40;99.90;;;;;;5028686;28;20183;-75
2022/12/04 00:46:50;;;;;;;5.27;2.10;;;12.50;99.90;;;;;;5018460;28;20192;-75
2022/12/04 00:49:18;;;;;;;12.33;2.40;;;12.40;99.90;;;;;;5025485;28;20608;-75
2022/12/04 00:51:44;;;;;;;7.27;2.40;;;12.40;99.90;;;;;;5028212;28;20196;-75
2022/12/04 00:54:10;;;;;;;4.60;2.30;;;12.40;99.90;;;;;;5027514;28;20837;-75
2022/12/04 00:56:38;;;;;;;6.57;2.77;;;12.40;99.90;;;;;;5028155;28;20295;-75
2022/12/04 00:59:04;;;;;;;6.27;2.50;;;12.40;99.90;;;;;;5027429;28;20197;-75
2022/12/04 01:01:31;;;;;;;6.73;2.73;;;12.40;99.90;;;;;;5021844;28;20188;-75
2022/12/04 01:03:58;;;;;;;8.17;2.50;;;12.40;99.90;;;;;;5029205;28;20233;-75
2022/12/04 01:06:31;;;;;;;5.37;2.10;;;12.30;99.90;;;;;;5036993;28;20202;-75
2022/12/04 01:09:00;;;;;;;11.60;2.83;;;12.30;99.90;;;;;;5022876;28;20689;-75
2022/12/04 01:11:29;;;;;;;11.00;2.53;;;12.30;99.90;;;;;;5045614;28;20576;-75
2022/12/04 01:13:58;;;;;;;4.77;2.40;;;12.30;99.90;;;;;;5021269;28;20201;-75
2022/12/04 01:16:36;;;;;;;5.33;2.47;;;12.30;99.90;;;;;;5020734;28;20219;-75
2022/12/04 01:19:05;;;;;;;6.40;2.20;;;12.30;99.90;;;;;;5027590;28;20184;-75
2022/12/04 01:21:32;;;;;;;5.83;2.60;;;12.40;99.90;;;;;;5031282;28;20195;-75
2022/12/04 01:23:58;;;;;;;7.37;2.30;;;12.40;99.90;;;;;;5034794;28;20247;-75
2022/12/04 01:26:26;;;;;;;9.03;2.40;;;12.40;99.90;;;;;;5034205;28;20230;-75
2022/12/04 01:28:53;;;;;;;11.40;2.60;;;12.40;99.90;;;;;;5032237;28;20188;-75
2022/12/04 01:31:21;;;;;;;6.77;2.40;;;12.40;99.90;;;;;;5016515;28;20282;-75
2022/12/04 01:33:50;;;;;;;6.30;2.27;;;12.40;99.90;;;;;;5022571;28;20204;-75
2022/12/04 01:36:21;;;;;;;7.47;2.97;;;12.40;99.90;;;;;;5015687;28;20291;-75
2022/12/04 01:38:48;;;;;;;5.80;2.37;;;12.40;99.90;;;;;;5044201;28;20228;-75
2022/12/04 01:41:18;;;;;;;6.30;2.33;;;12.40;99.90;;;;;;5020851;28;20185;-75
2022/12/04 01:43:45;;;;;;;7.67;2.50;;;12.40;99.90;;;;;;5016945;28;20215;-75
2022/12/04 01:46:11;;;;;;;7.00;2.40;;;12.40;99.90;;;;;;5027017;28;20717;-75
2022/12/04 01:48:45;;;;;;;7.03;2.30;;;12.40;99.90;;;;;;5022861;28;20263;-75
2022/12/04 01:51:34;;;;;;;5.53;2.20;;;12.40;99.90;;;;;;5021131;28;20669;-75
2022/12/04 01:54:06;;;;;;;7.30;2.67;;;12.40;99.90;;;;;;5033429;28;20199;-75
2022/12/04 01:56:51;;;;;;;10.20;2.57;;;12.30;99.90;;;;;;5032522;28;20307;-75
2022/12/04 01:59:26;;;;;;;5.77;2.10;;;12.30;99.90;;;;;;5018401;28;20200;-75
2022/12/04 02:02:07;;;;;;;7.03;2.33;;;12.30;99.90;;;;;;5023464;28;20272;-75
2022/12/04 02:04:35;;;;;;;3.67;2.43;;;12.40;99.90;;;;;;5027143;28;20614;-75
2022/12/04 02:07:03;;;;;;;5.27;2.40;;;12.40;99.90;;;;;;5025548;28;20251;-75
2022/12/04 02:09:31;;;;;;;7.50;2.63;;;12.40;99.90;;;;;;5020804;28;20677;-75
2022/12/04 02:12:31;;;;;;;8.87;2.73;;;12.30;99.90;;;;;;5027665;28;20190;-75
2022/12/04 02:15:10;;;;;;;9.53;2.77;;;12.30;99.90;;;;;;5023371;28;20750;-75
2022/12/04 02:17:49;;;;;;;5.53;2.30;;;12.30;99.90;;;;;;5018999;28;20256;-75
2022/12/04 02:20:39;;;;;;;6.03;2.93;;;12.30;99.90;;;;;;5026187;28;20184;-75
2022/12/04 02:23:35;;;;;;;8.23;2.93;;;12.30;99.90;;;;;;5025352;28;20219;-75
2022/12/04 02:26:26;;;;;;;5.83;2.33;;;12.30;99.90;;;;;;5041609;28;20203;-75
2022/12/04 02:29:03;;;;;;;5.43;2.40;;;12.30;99.90;;;;;;5028016;28;20196;-76
2022/12/04 02:32:06;;;;;;;6.03;2.47;;;12.30;99.90;;;;;;5025612;28;20207;-75
2022/12/04 02:34:53;;;;;;;4.73;2.10;;;12.30;99.90;;;;;;5022878;28;20390;-76
2022/12/04 02:37:39;;;;;;;6.27;2.70;;;12.30;99.90;;;;;;5008516;28;20914;-75
2022/12/04 02:40:24;;;;;;;10.77;2.73;;;12.20;99.90;;;;;;5026097;28;20191;-75
2022/12/04 02:43:00;;;;;;;4.77;2.50;;;12.20;99.90;;;;;;5023681;28;20685;-76
2022/12/04 02:45:36;;;;;;;7.67;2.70;;;12.20;99.90;;;;;;5021353;28;20199;-76
2022/12/04 02:48:06;;;;;;;9.73;2.77;;;12.30;99.90;;;;;;5031231;28;20187;-75
2022/12/04 02:50:39;;;;;;;4.50;2.70;;;12.30;99.90;;;;;;5014909;28;20204;-76
2022/12/04 02:53:18;;;;;;;7.53;2.63;;;12.30;99.90;;;;;;5027675;28;20291;-76
2022/12/04 02:55:56;;;;;;;7.33;2.70;;;12.30;99.90;;;;;;5015743;28;20290;-75
2022/12/04 02:58:31;;;;;;;8.87;3.07;;;12.30;99.90;;;;;;5024338;28;20810;-76
2022/12/04 03:01:18;;;;;;;5.47;2.70;;;12.30;99.90;;;;;;5038983;28;20227;-76
2022/12/04 03:04:05;;;;;;;9.00;3.00;;;12.20;99.90;;;;;;5051343;28;20188;-76
2022/12/04 03:06:35;;;;;;;5.30;2.60;;;12.20;99.90;;;;;;5024691;28;20202;-75
2022/12/04 03:09:26;;;;;;;10.60;3.10;;;12.20;99.90;;;;;;5024850;28;20205;-76
2022/12/04 03:12:17;;;;;;;7.40;2.83;;;12.20;99.90;;;;;;5030135;28;20227;-75
2022/12/04 03:14:57;;;;;;;7.53;2.73;;;12.20;99.90;;;;;;5021097;28;20241;-76
2022/12/04 03:17:43;;;;;;;6.63;2.63;;;12.20;99.90;;;;;;5029816;28;20195;-75
2022/12/04 03:20:13;;;;;;;6.23;2.63;;;12.20;99.90;;;;;;5028564;28;20262;-76
2022/12/04 03:22:45;;;;;;;9.30;2.43;;;12.20;99.90;;;;;;5008024;28;20208;-75
2022/12/04 03:25:12;;;;;;;3.90;2.17;;;12.20;99.90;;;;;;5021302;28;20208;-76
2022/12/04 03:27:56;;;;;;;9.53;2.70;;;12.20;99.90;;;;;;5033334;28;20204;-76
2022/12/04 03:30:23;;;;;;;11.40;3.10;;;12.20;99.90;;;;;;5044040;28;20196;-76
2022/12/04 03:33:30;;;;;;;6.67;2.60;;;12.20;99.90;;;;;;5025300;28;20549;-75
2022/12/04 03:36:09;;;;;;;7.17;2.50;;;12.20;99.90;;;;;;5017327;28;20219;-76
2022/12/04 03:38:56;;;;;;;6.23;2.20;;;12.10;99.90;;;;;;5026253;28;20203;-76
2022/12/04 03:41:37;;;;;;;9.07;2.33;;;12.10;99.90;;;;;;5029837;28;20180;-76
2022/12/04 03:44:21;;;;;;;5.27;2.50;;;12.10;99.90;;;;;;5007808;28;20641;-76
2022/12/04 03:47:09;;;;;;;5.57;2.40;;;12.10;99.90;;;;;;5010614;28;20196;-76
2022/12/04 03:49:58;;;;;;;5.50;2.33;;;12.00;99.90;;;;;;5032649;28;20196;-76
2022/12/04 03:52:58;;;;;;;8.63;2.70;;;12.00;99.90;;;;;;5036420;28;20227;-76
2022/12/04 03:56:00;;;;;;;10.00;2.77;;;11.90;99.90;;;;;;5027008;28;20294;-75
2022/12/04 03:58:32;;;;;;;7.13;2.70;;;11.90;99.90;;;;;;5007705;28;20347;-75
2022/12/04 04:01:02;;;;;;;7.47;2.10;;;11.90;99.90;;;;;;5031665;28;20271;-75
2022/12/04 04:03:38;;;;;;;9.00;2.60;;;11.90;99.90;;;;;;5030010;28;20245;-75
2022/12/04 04:06:23;;;;;;;6.33;2.93;;;11.90;99.90;;;;;;5025829;28;20665;-76
2022/12/04 04:08:58;;;;;;;9.70;2.60;;;11.90;99.90;;;;;;5033121;28;20207;-76
2022/12/04 04:11:36;;;;;;;3.57;2.43;;;11.90;99.90;;;;;;5026534;28;20211;-75
2022/12/04 04:26:10;;;;;;;10.00;2.90;;;11.80;99.90;;;;;;4989486;28;20192;-76
2022/12/04 04:28:39;;;;;;;8.30;2.60;;;11.80;99.90;;;;;;5019360;28;20223;-75
2022/12/04 04:31:55;;;;;;;7.07;2.20;;;11.80;99.90;;;;;;5029279;28;20712;-75
2022/12/04 04:35:16;;;;;;;6.50;2.47;;;11.70;99.90;;;;;;5025316;28;20188;-76
2022/12/04 04:37:55;;;;;;;5.03;2.37;;;11.70;99.90;;;;;;5041985;28;20192;-75
2022/12/04 04:41:05;;;;;;;5.50;2.30;;;11.70;99.90;;;;;;5031739;28;20264;-76
2022/12/04 04:43:38;;;;;;;5.47;2.53;;;11.70;99.90;;;;;;5031549;28;20274;-76
2022/12/04 04:46:17;;;;;;;9.43;2.53;;;11.70;99.90;;;;;;5039090;28;20196;-76
2022/12/04 04:48:56;;;;;;;3.10;2.13;;;11.70;99.90;;;;;;5019773;28;20577;-76
2022/12/04 04:51:24;;;;;;;5.57;2.27;;;11.70;99.90;;;;;;5015462;28;20196;-76
2022/12/04 04:53:57;;;;;;;6.67;2.50;;;11.70;99.90;;;;;;5028907;28;20242;-75
2022/12/04 04:56:24;;;;;;;10.27;2.20;;;11.70;99.90;;;;;;5027794;28;20748;-76
2022/12/04 04:58:50;;;;;;;6.57;2.13;;;11.70;99.90;;;;;;5027145;28;20681;-75
2022/12/04 05:01:21;;;;;;;4.03;2.10;;;11.80;99.90;;;;;;5026229;28;20193;-75
2022/12/04 05:03:48;;;;;;;4.67;2.00;;;11.80;99.90;;;;;;5021165;28;20192;-75
2022/12/04 05:06:15;;;;;;;4.80;2.10;;;11.80;99.90;;;;;;5026534;28;20184;-76
2022/12/04 05:08:43;;;;;;;4.37;2.10;;;11.80;99.90;;;;;;5034291;28;20318;-76
2022/12/04 05:11:15;;;;;;;6.83;2.23;;;11.80;99.90;;;;;;5018344;28;20189;-76
2022/12/04 05:13:42;;;;;;;10.47;2.33;;;11.80;99.90;;;;;;5048365;28;20192;-76
2022/12/04 05:16:13;;;;;;;6.20;2.20;;;11.80;99.90;;;;;;5026568;28;20212;-76
2022/12/04 05:19:52;;;;;;;9.87;2.03;;;11.90;99.90;;;;;;5051527;28;20263;-75
2022/12/04 05:21:27;;;;;;;7.47;2.37;;;11.90;99.90;;;;;;5028110;28;20208;-75
2022/12/04 05:23:54;;;;;;;5.47;1.87;;;11.90;99.90;;;;;;5024992;28;20184;-76
2022/12/04 05:26:20;;;;;;;5.30;2.00;;;12.00;99.90;;;;;;5018838;28;20647;-76
2022/12/04 05:28:51;;;;;;;5.60;1.93;;;12.00;99.90;;;;;;5027656;28;20207;-76
2022/12/04 05:31:17;;;;;;;4.50;2.20;;;11.90;99.90;;;;;;5022484;28;20192;-75
2022/12/04 05:33:45;;;;;;;4.13;2.00;;;12.00;99.90;;;;;;5041393;28;20192;-75
2022/12/04 05:36:12;;;;;;;3.37;2.20;;;12.00;99.90;;;;;;5023304;28;20289;-76
2022/12/04 05:38:39;;;;;;;4.13;2.07;;;12.00;99.90;;;;;;5025358;28;20207;-75
2022/12/04 05:41:06;;;;;;;3.93;1.87;;;11.90;99.90;;;;;;5029922;28;20270;-76
2022/12/04 05:43:33;;;;;;;5.70;2.13;;;12.00;99.90;;;;;;5029986;28;20180;-76
2022/12/04 05:46:06;;;;;;;9.17;2.43;;;12.00;99.90;;;;;;5018939;28;20235;-75
2022/12/04 05:48:34;;;;;;;10.27;2.70;;;12.00;99.90;;;;;;5024154;28;20279;-75
2022/12/04 05:51:09;;;;;;;3.60;1.87;;;12.00;99.90;;;;;;5028053;28;20192;-75
2022/12/04 05:53:37;;;;;;;4.47;2.10;;;12.00;99.90;;;;;;5038323;28;20810;-76
2022/12/04 05:56:05;;;;;;;8.90;2.20;;;12.00;99.90;;;;;;5028253;28;20238;-76
2022/12/04 05:58:35;;;;;;;5.70;2.30;;;12.00;99.90;;;;;;5039568;28;20603;-76
2022/12/04 06:01:13;;;;;;;4.97;2.20;;;12.10;99.90;;;;;;5023844;28;20715;-76
2022/12/04 06:03:41;;;;;;;6.23;2.40;;;12.10;99.90;;;;;;5046219;28;20740;-75
2022/12/04 06:06:17;;;;;;;6.37;2.27;;;12.20;99.90;;;;;;5024098;28;20192;-76
2022/12/04 06:08:44;;;;;;;6.07;1.97;;;12.20;99.90;;;;;;5027311;28;20200;-76
2022/12/04 06:11:18;;;;;;;3.87;2.13;;;12.30;99.90;;;;;;5026480;28;20211;-76
2022/12/04 06:13:46;;;;;;;9.27;2.27;;;12.30;99.90;;;;;;5034543;28;20190;-76
2022/12/04 06:16:22;;;;;;;4.40;2.40;;;12.30;99.90;;;;;;5039724;28;20242;-76
2022/12/04 06:18:55;;;;;;;7.87;2.50;;;12.40;99.90;;;;;;5029306;28;20241;-75
2022/12/04 06:21:24;;;;;;;6.20;2.40;;;12.40;99.90;;;;;;5023680;28;20219;-75
2022/12/04 06:23:51;;;;;;;4.93;2.40;;;12.50;99.90;;;;;;5024218;28;20215;-75
2022/12/04 06:26:19;;;;;;;3.90;2.27;;;12.60;99.90;;;;;;5013794;28;20195;-76
2022/12/04 06:28:46;;;;;;;7.03;2.10;;;12.60;99.90;;;;;;5027116;28;20191;-76
2022/12/04 06:31:17;;;;;;;4.03;2.20;;;12.70;99.90;;;;;;5024604;28;20192;-76
2022/12/04 06:33:45;;;;;;;7.20;2.53;;;12.70;99.90;;;;;;5024750;28;20191;-76
2022/12/04 06:36:17;;;;;;;5.03;2.67;;;12.80;99.90;;;;;;5028689;28;20214;-76
2022/12/04 06:38:44;;;;;;;4.17;2.30;;;12.80;99.90;;;;;;5022996;28;20192;-76
2022/12/04 06:41:15;;;;;;;4.40;2.27;;;12.90;99.90;;;;;;5011195;28;20531;-76
2022/12/04 06:43:42;;;;;;;8.90;2.50;;;12.90;99.90;;;;;;5021763;28;20828;-76
2022/12/04 06:46:14;;;;;;;7.50;2.50;;;12.90;99.90;;;;;;5028574;28;20532;-76
2022/12/04 06:48:41;;;;;;;4.97;2.40;;;12.90;99.90;;;;;;5020972;28;20192;-76
2022/12/04 06:51:16;;;;;;;4.53;2.57;;;13.00;99.90;;;;;;5034971;28;20184;-75
2022/12/04 06:53:43;;;;;;;8.70;2.50;;;13.10;99.90;;;;;;5033487;28;20519;-76
2022/12/04 06:56:16;;;;;;;5.03;2.27;;;13.10;99.90;;;;;;5020157;28;20206;-76
2022/12/04 06:58:48;;;;;;;4.37;2.40;;;13.10;99.90;;;;;;5038896;28;20203;-76
2022/12/04 07:01:19;;;;;;;5.57;2.80;;;13.10;99.90;;;;;;5027334;28;20184;-76
2022/12/04 07:03:47;;;;;;;4.07;2.60;;;13.20;99.90;;;;;;5033143;28;20715;-76
2022/12/04 07:06:26;;;;;;;10.30;2.87;;;13.30;99.90;;;;;;5020499;28;20545;-76
2022/12/04 07:08:58;;;;;;;6.93;2.77;;;13.30;99.90;;;;;;5028772;28;20294;-76
2022/12/04 07:11:24;;;;;;;5.47;2.43;;;13.30;99.90;;;;;;5054425;28;20192;-76
2022/12/04 07:13:51;;;;;;;6.10;2.37;;;13.30;99.90;;;;;;5027300;28;20188;-76
2022/12/04 07:16:21;;;;;;;5.77;2.60;;;13.30;99.90;;;;;;5012083;28;20196;-76
2022/12/04 07:18:55;;;;;;;5.50;2.50;;;13.40;99.90;;;;;;5034301;28;20191;-76
2022/12/04 07:21:30;;;;;;;5.90;2.40;;;13.40;99.90;;;;;;5029209;28;20722;-76
2022/12/04 07:24:01;;;;;;;8.17;2.83;;;13.50;99.90;;;;;;5031011;28;20184;-76
2022/12/04 07:26:29;;;;;;;4.10;2.50;;;13.70;99.90;;;;;;5030708;28;20207;-76
2022/12/04 07:28:57;;;;;;;6.50;2.50;;;14.00;99.90;;;;;;5044572;28;20283;-76
2022/12/04 07:31:27;;;;;;;7.63;2.40;;;14.10;99.90;;;;;;5037767;28;20196;-76
2022/12/04 07:33:54;;;;;;;3.90;2.17;;;14.00;99.90;;;;;;5031140;28;20790;-76
2022/12/04 07:36:22;;;;;;;4.30;2.50;;;13.80;99.90;;;;;;5031415;28;20212;-76
2022/12/04 07:38:49;;;;;;;6.70;2.27;;;13.70;99.90;;;;;;5022874;28;20207;-76
2022/12/04 07:41:19;;;;;;;4.63;2.27;;;13.70;99.90;;;;;;5028201;28;20673;-76
2022/12/04 07:43:46;;;;;;;5.20;2.57;;;13.70;99.90;;;;;;5027111;28;20207;-76
2022/12/04 07:46:19;;;;;;;4.83;2.30;;;13.70;99.90;;;;;;5023409;28;20736;-75
2022/12/04 07:48:46;;;;;;;4.57;2.33;;;13.70;99.90;;;;;;5024702;28;21999;-76
2022/12/04 07:51:20;;;;;;;4.60;2.40;;;13.70;99.90;;;;;;5027466;28;20287;-76
2022/12/04 07:53:48;;;;;;;6.90;3.03;;;13.70;99.90;;;;;;5026542;28;20192;-76
2022/12/04 07:56:15;;;;;;;5.77;2.57;;;13.70;99.90;;;;;;5028662;28;20208;-76
2022/12/04 07:58:42;;;;;;;9.60;2.47;;;13.70;99.90;;;;;;5028513;28;20214;-76
2022/12/04 08:01:17;;;;;;;4.20;2.40;;;13.70;99.90;;;;;;5007421;28;20276;-76
2022/12/04 08:03:46;;;;;;;8.37;2.77;;;13.70;99.90;;;;;;5014803;28;20187;-76
2022/12/04 08:06:12;;;;;;;3.43;2.30;;;13.80;99.90;;;;;;5020095;28;20574;-76
2022/12/04 08:08:38;;;;;;;4.10;2.27;;;13.80;99.90;;;;;;5023306;28;20250;-76
2022/12/04 08:11:11;;;;;;;6.97;2.67;;;13.80;99.90;;;;;;5033084;28;20228;-76
2022/12/04 08:13:38;;;;;;;4.57;2.43;;;13.80;99.90;;;;;;5045392;28;20674;-75
2022/12/04 08:16:07;;;;;;;4.90;2.40;;;13.90;99.90;;;;;;5003362;28;20200;-75
2022/12/04 08:18:33;;;;;;;3.83;2.40;;;13.90;99.90;;;;;;5022651;28;20196;-75
2022/12/04 08:21:12;;;;;;;5.67;2.13;;;13.90;99.90;;;;;;5027238;28;20211;-75
2022/12/04 08:23:42;;;;;;;5.23;2.57;;;13.90;99.90;;;;;;5024729;28;20184;-76
2022/12/04 08:26:09;;;;;;;6.47;2.30;;;14.00;99.90;;;;;;5026530;28;20344;-75
2022/12/04 08:28:36;;;;;;;5.87;1.97;;;14.00;99.90;;;;;;5021925;28;20191;-75
2022/12/04 08:31:19;;;;;;;9.47;2.70;;;14.00;99.90;;;;;;5032421;28;20196;-76
2022/12/04 08:33:49;;;;;;;5.33;1.93;;;14.10;99.90;;;;;;5042702;28;20616;-76
2022/12/04 08:36:19;;;;;;;6.90;2.60;;;14.20;99.90;;;;;;5027314;28;20207;-76
2022/12/04 08:38:47;;;;;;;6.10;2.37;;;14.20;99.90;;;;;;5007684;28;20234;-76
2022/12/04 08:41:17;;;;;;;6.80;2.53;;;14.30;99.90;;;;;;5039096;28;20665;-76
2022/12/04 08:43:44;;;;;;;4.83;2.27;;;14.30;99.90;;;;;;5028430;28;20180;-76
2022/12/04 08:46:14;;;;;;;5.90;2.33;;;14.50;99.90;;;;;;5023883;28;20200;-76
2022/12/04 08:48:41;;;;;;;6.60;2.80;;;14.50;99.90;;;;;;5027743;28;20680;-76
2022/12/04 08:51:23;;;;;;;8.50;2.47;;;14.60;99.90;;;;;;5021673;28;20275;-75
2022/12/04 08:53:59;;;;;;;6.57;2.70;;;14.60;99.90;;;;;;5018737;28;20241;-75
2022/12/04 08:56:28;;;;;;;6.03;2.50;;;14.70;99.90;;;;;;5024493;28;20211;-76
2022/12/04 08:58:56;;;;;;;8.17;2.30;;;14.70;99.90;;;;;;5026452;28;20274;-76
2022/12/04 09:01:24;;;;;;;8.13;2.40;;;14.80;99.90;;;;;;5025781;28;20627;-76
2022/12/04 09:03:51;;;;;;;4.87;2.10;;;14.90;99.90;;;;;;5017261;28;20646;-75
2022/12/04 09:06:18;;;;;;;3.97;2.27;;;14.90;99.90;;;;;;5024041;28;20743;-76
2022/12/04 09:08:45;;;;;;;7.40;2.40;;;14.90;99.90;;;;;;5016507;28;20224;-75
2022/12/04 09:11:19;;;;;;;6.73;2.60;;;15.00;99.90;;;;;;5018813;28;20192;-75
2022/12/04 09:13:46;;;;;;;7.77;2.53;;;15.10;99.90;;;;;;5022164;28;20199;-75
2022/12/04 09:16:18;;;;;;;6.77;2.80;;;15.10;99.90;;;;;;5030002;28;20593;-76
2022/12/04 09:18:44;;;;;;;7.63;2.80;;;15.20;99.90;;;;;;5024493;28;20200;-76
2022/12/04 09:21:14;;;;;;;7.17;3.53;;;15.30;99.90;;;;;;5028713;28;20223;-75
2022/12/04 09:23:42;;;;;;;6.00;2.70;;;15.30;99.90;;;;;;5031538;28;20183;-76
2022/12/04 09:26:23;;;;;;;5.33;2.80;;;15.30;99.90;;;;;;5032610;28;20192;-76
2022/12/04 09:28:51;;;;;;;8.17;3.60;;;15.40;99.90;;;;;;5037266;28;20206;-76
2022/12/04 09:31:20;;;;;;;6.17;3.13;;;15.40;99.90;;;;;;5036458;28;20181;-76
2022/12/04 09:33:46;;;;;;;6.43;2.97;;;15.50;99.90;;;;;;5020063;28;20192;-76
2022/12/04 09:36:16;;;;;;;8.60;2.97;;;15.50;99.90;;;;;;5021029;28;20219;-76
2022/12/04 09:38:46;;;;;;;5.87;2.80;;;15.60;99.90;;;;;;5023042;28;20192;-76
2022/12/04 09:41:46;;;;;;;9.10;3.60;;;15.60;99.90;;;;;;5022185;28;20172;-75
2022/12/04 09:44:30;;;;;;;9.03;3.67;;;15.60;99.90;;;;;;5020004;28;20220;-76
2022/12/04 09:47:27;;;;;;;7.83;3.27;;;15.70;99.90;;;;;;5023800;28;20267;-76
2022/12/04 09:50:02;;;;;;;8.10;3.13;;;15.80;99.90;;;;;;5036120;28;20211;-76
2022/12/04 09:52:56;;;;;;;4.43;3.00;;;15.70;99.90;;;;;;5032218;28;20254;-75
2022/12/04 09:55:53;;;;;;;5.20;3.23;;;15.80;99.90;;;;;;5019706;28;20257;-76
2022/12/04 09:58:51;;;;;;;7.23;3.53;;;15.80;99.90;;;;;;5016779;28;20272;-76
2022/12/04 10:01:34;;;;;;;6.50;3.60;;;15.90;99.90;;;;;;4961956;28;20193;-76
2022/12/04 10:04:00;;;;;;;9.00;3.37;;;16.00;99.90;;;;;;4999089;28;20192;-76
2022/12/04 10:06:39;;;;;;;7.60;3.53;;;16.00;99.90;;;;;;5021768;28;20246;-75
2022/12/04 10:09:26;;;;;;;8.37;3.53;;;16.10;99.90;;;;;;5041620;28;20566;-77
2022/12/04 10:12:08;;;;;;;7.90;3.13;;;16.10;99.90;;;;;;5010580;28;20724;-76
2022/12/04 10:14:51;;;;;;;9.03;3.83;;;16.20;99.90;;;;;;5025043;28;20196;-76
2022/12/04 10:17:38;;;;;;;4.97;3.20;;;16.20;99.90;;;;;;5002812;28;20184;-76
2022/12/04 10:20:37;;;;;;;7.87;3.40;;;16.30;99.90;;;;;;5008837;28;20196;-76
2022/12/04 10:23:47;;;;;;;7.37;3.80;;;16.30;99.90;;;;;;5019037;28;20247;-76
2022/12/04 10:26:24;;;;;;;6.80;3.67;;;16.40;99.90;;;;;;5016480;28;20580;-76
2022/12/04 10:29:03;;;;;;;8.73;3.77;;;16.40;99.90;;;;;;5008332;28;20187;-77
2022/12/04 10:31:32;;;;;;;8.60;3.40;;;16.50;99.90;;;;;;5023317;28;20616;-75
2022/12/04 10:34:26;;;;;;;9.90;4.10;;;16.60;99.90;;;;;;5024799;28;20661;-75
2022/12/04 10:36:59;;;;;;;13.97;4.00;;;16.70;99.90;;;;;;5021708;28;20269;-75
2022/12/04 10:39:38;;;;;;;9.33;3.80;;;16.90;99.90;;;;;;5022610;28;20191;-75
2022/12/04 10:42:38;;;;;;;6.53;3.70;;;16.90;99.90;;;;;;5028542;28;20195;-76
2022/12/04 10:45:07;;;;;;;8.60;3.90;;;17.00;99.90;;;;;;5017467;28;20198;-76
2022/12/04 10:47:34;;;;;;;7.17;3.97;;;17.10;99.90;;;;;;5028461;28;20200;-76
2022/12/04 10:50:14;;;;;;;8.47;3.63;;;17.10;99.90;;;;;;5024047;28;20241;-75
2022/12/04 10:52:41;;;;;;;6.53;3.60;;;17.20;99.90;;;;;;5018261;28;20203;-76
2022/12/04 10:55:08;;;;;;;8.30;3.63;;;17.10;99.90;;;;;;5021361;28;20192;-76
2022/12/04 10:57:45;;;;;;;8.63;3.70;;;17.20;99.90;;;;;;5006872;28;20279;-76
2022/12/04 11:00:33;;;;;;;7.53;3.33;;;17.40;99.90;;;;;;5022852;28;20275;-76
2022/12/04 11:03:21;;;;;;;5.73;3.67;;;17.50;99.90;;;;;;5019193;28;20196;-76
2022/12/04 11:05:59;;;;;;;6.72;3.25;;;17.60;99.90;;;;;;5027932;28;20199;-76
2022/12/04 11:08:49;;;;;;;8.07;3.67;;;17.70;99.90;;;;;;5024601;28;20232;-76
2022/12/04 11:11:31;;;;;;;10.88;3.78;;;17.70;99.90;;;;;;5017326;28;20228;-76
2022/12/04 11:14:06;;;;;;;8.47;3.67;;;17.70;99.90;;;;;;5001381;28;20284;-76
2022/12/04 11:16:43;;;;;;;8.35;4.20;;;17.70;99.90;;;;;;4997788;28;20219;-76
2022/12/04 11:19:31;;;;;;;8.82;3.47;;;17.70;99.90;;;;;;5013299;28;20200;-76
2022/12/04 11:22:16;;;;;;;10.43;4.13;;;17.70;99.90;;;;;;5018396;28;20192;-76
2022/12/04 11:24:54;;;;;;;10.00;4.33;;;17.80;99.90;;;;;;5024758;28;20255;-76
2022/12/04 11:27:32;;;;;;;7.57;4.40;;;17.80;99.90;;;;;;5007713;28;20201;-76
2022/12/04 11:30:15;;;;;;;11.57;4.37;;;17.70;99.90;;;;;;5011297;28;20741;-76
2022/12/04 11:32:45;;;;;;;6.50;3.60;;;17.50;99.90;;;;;;5023386;28;20195;-76
2022/12/04 11:35:24;;;;;;;10.27;4.60;;;17.50;99.90;;;;;;5012504;28;20188;-75
2022/12/04 11:38:12;;;;;;;11.63;4.20;;;17.60;99.90;;;;;;5013858;28;20548;-76
2022/12/04 11:40:44;;;;;;;9.80;3.80;;;17.60;99.90;;;;;;5008726;28;20808;-76
2022/12/04 11:43:17;;;;;;;8.83;3.90;;;17.70;99.90;;;;;;5029638;28;20183;-76
2022/12/04 11:46:05;;;;;;;8.13;3.67;;;17.80;99.90;;;;;;5023298;28;20271;-76
2022/12/04 11:48:44;;;;;;;7.50;4.43;;;17.80;99.90;;;;;;5019962;28;20200;-76
2022/12/04 11:51:26;;;;;;;9.07;3.97;;;17.80;99.90;;;;;;5014836;28;20275;-76
2022/12/04 11:53:55;;;;;;;5.67;4.03;;;17.80;99.90;;;;;;5014614;28;20222;-76
2022/12/04 11:56:37;;;;;;;7.07;3.80;;;17.80;99.90;;;;;;5011256;28;20295;-76
2022/12/04 11:59:23;;;;;;;5.87;3.87;;;17.80;99.90;;;;;;5015720;28;20191;-76
2022/12/04 12:02:27;;;;;;;5.37;4.00;;;17.80;99.90;;;;;;5015725;28;20271;-76
2022/12/04 12:05:06;;;;;;;6.70;3.67;;;17.70;99.90;;;;;;5014403;28;20207;-76
2022/12/04 12:07:51;;;;;;;7.70;4.00;;;17.70;99.90;;;;;;5024496;28;20203;-76
2022/12/04 12:10:42;;;;;;;5.73;3.77;;;17.80;99.90;;;;;;5029016;28;20184;-76
2022/12/04 12:13:53;;;;;;;5.40;3.63;;;17.80;99.90;;;;;;5015713;28;20196;-76
2022/12/04 12:16:49;;;;;;;8.40;3.23;;;17.80;99.90;;;;;;5050999;28;20689;-76
2022/12/04 12:19:54;;;;;;;6.23;3.30;;;17.80;99.90;;;;;;5015398;28;20235;-76
2022/12/04 12:22:29;;;;;;;9.97;3.87;;;17.80;99.90;;;;;;5025815;28;20189;-76
2022/12/04 12:25:19;;;;;;;5.93;3.50;;;17.70;99.90;;;;;;5019571;28;20192;-76
2022/12/04 12:28:25;;;;;;;5.07;3.53;;;17.70;99.90;;;;;;5051019;28;20184;-76
2022/12/04 12:31:20;;;;;;;6.63;3.43;;;17.70;99.90;;;;;;5014463;28;20198;-76
2022/12/04 12:33:59;;;;;;;5.37;3.60;;;17.60;99.90;;;;;;5019626;28;20220;-76
2022/12/04 12:36:35;;;;;;;8.93;3.47;;;17.60;99.90;;;;;;5027910;28;20235;-76
2022/12/04 12:39:20;;;;;;;5.63;3.53;;;17.60;99.90;;;;;;5026829;28;20451;-75
2022/12/04 12:41:58;;;;;;;7.60;3.53;;;17.50;99.90;;;;;;5039694;28;20263;-76
2022/12/04 12:44:42;;;;;;;8.20;3.93;;;17.50;99.90;;;;;;5027317;28;20176;-75
2022/12/04 12:47:18;;;;;;;6.40;3.90;;;17.50;99.90;;;;;;5019594;28;20219;-75
2022/12/04 12:49:58;;;;;;;4.93;3.33;;;17.40;99.90;;;;;;5020249;28;20196;-75
2022/12/04 12:52:53;;;;;;;4.57;3.37;;;17.40;99.90;;;;;;5040383;28;20740;-76
2022/12/04 12:55:30;;;;;;;7.70;4.20;;;17.40;99.90;;;;;;5025163;28;20693;-75
2022/12/04 12:58:20;;;;;;;4.27;3.80;;;17.30;99.90;;;;;;5007004;28;20184;-75
2022/12/04 13:01:18;;;;;;;5.97;3.67;;;17.30;99.90;;;;;;5024563;28;20303;-76
2022/12/04 13:04:13;;;;;;;8.37;3.90;;;17.20;99.90;;;;;;5030426;28;20192;-76
2022/12/04 13:06:44;;;;;;;9.30;3.90;;;17.20;99.90;;;;;;5017030;28;20764;-76
2022/12/04 13:09:40;;;;;;;7.63;3.90;;;17.20;99.90;;;;;;5012359;28;20617;-75
2022/12/04 13:12:14;;;;;;;4.93;3.53;;;17.20;99.90;;;;;;5017108;28;20231;-75
2022/12/04 13:14:41;;;;;;;7.43;3.60;;;17.10;99.90;;;;;;5054965;28;20199;-76
2022/12/04 13:17:32;;;;;;;3.93;3.50;;;17.10;99.90;;;;;;5023315;28;20224;-76
2022/12/04 13:20:05;;;;;;;6.30;3.53;;;17.10;99.90;;;;;;5023502;28;20275;-76
2022/12/04 13:23:14;;;;;;;7.87;3.60;;;17.00;99.90;;;;;;5027301;28;20203;-75
2022/12/04 13:26:09;;;;;;;6.67;3.63;;;17.00;99.90;;;;;;5017370;28;20196;-76
2022/12/04 13:29:23;;;;;;;8.07;3.60;;;17.00;99.90;;;;;;5023780;28;20657;-75
2022/12/04 13:32:01;;;;;;;9.07;4.50;;;16.90;99.90;;;;;;4985694;28;20531;-75
2022/12/04 13:34:53;;;;;;;7.50;3.90;;;16.90;99.90;;;;;;5026788;28;20234;-75
2022/12/04 13:38:08;;;;;;;9.53;4.33;;;16.80;99.90;;;;;;5013403;28;20240;-75
2022/12/04 13:40:54;;;;;;;6.93;3.80;;;16.80;99.90;;;;;;5023969;28;20191;-75
2022/12/04 13:43:42;;;;;;;5.93;3.60;;;16.70;99.90;;;;;;5021382;28;20192;-75